CW6617 Weather Reports


Display with metric or nautical units.
time (UTC)temp
F
wind
direction
speed
MPH
gust
MPH
rain 1hr
in
rain 24hr
in
rain mn
in
humidity
%
barometer
mb
20200224184706 50 258 10.0 23.0 0.00 0.25 0.25 83 1005.7
20200224184206 50 271 7.0 18.0 0.00 0.25 0.25 84 1005.6
20200224183705 50 259 6.0 14.0 0.00 0.25 0.25 84 1005.6
20200224183206 51 240 10.0 26.0 0.00 0.25 0.25 84 1005.4
20200224181706 51 267 9.0 17.0 0.00 0.25 0.25 85 1005.2
20200224181205 51 260 11.0 18.0 0.00 0.25 0.25 85 1005.1
20200224180706 52 288 9.0 21.0 0.00 0.25 0.25 87 1005.0
20200224180205 52 272 10.0 21.0 0.00 0.25 0.25 87 1004.9
20200224174706 52 226 6.0 16.0 0.00 0.25 0.25 88 1004.7
20200224174205 52 236 6.0 12.0 0.00 0.25 0.25 88 1004.6
20200224173706 52 230 6.0 13.0 0.00 0.25 0.25 88 1004.5
20200224173206 52 253 7.0 15.0 0.00 0.25 0.25 88 1004.6
20200224171705 52 235 8.0 13.0 0.00 0.25 0.25 89 1004.6
20200224171206 52 236 6.0 14.0 0.00 0.25 0.25 90 1004.4
20200224170706 52 227 9.0 13.0 0.00 0.25 0.25 90 1004.4
20200224170205 52 211 7.0 16.0 0.00 0.25 0.25 91 1004.3
20200224164705 52 209 6.0 13.0 0.00 0.25 0.25 92 1004.5
20200224164206 52 221 3.0 16.0 0.00 0.25 0.25 92 1004.5
20200224163705 52 216 6.0 13.0 0.00 0.25 0.25 93 1004.4
20200224163206 52 207 7.0 16.0 0.00 0.25 0.25 93 1004.4
20200224161705 52 231 6.0 10.0 0.00 0.25 0.25 94 1004.4
20200224161206 52 216 10.0 14.0 0.00 0.25 0.25 94 1004.5
20200224160705 52 200 7.0 15.0 0.00 0.25 0.25 95 1004.4
20200224160206 52 211 7.0 14.0 0.00 0.25 0.25 95 1004.6
20200224154705 51 213 5.0 14.0 0.00 0.25 0.25 94 1004.6
20200224154205 51 208 9.0 15.0 0.00 0.25 0.25 94 1004.8
20200224153706 51 223 7.0 13.0 0.00 0.25 0.25 94 1004.6
20200224153206 51 222 7.0 18.0 0.00 0.25 0.25 94 1004.7
20200224151706 51 210 9.0 15.0 0.00 0.25 0.25 94 1004.9
20200224151206 51 217 7.0 13.0 0.00 0.25 0.25 95 1005.0
20200224150705 51 212 8.0 13.0 0.00 0.25 0.25 94 1005.1
20200224150206 51 204 5.0 16.0 0.00 0.25 0.25 95 1005.0
20200224144706 51 176 6.0 9.0 0.00 0.25 0.25 95 1005.2
20200224144206 51 181 7.0 14.0 0.00 0.25 0.25 95 1005.2
20200224143705 51 208 7.0 13.0 0.00 0.25 0.25 95 1005.3
20200224143205 51 198 9.0 14.0 0.00 0.25 0.25 95 1005.3
20200224141705 51 197 8.0 13.0 0.01 0.25 0.25 95 1005.3
20200224141205 51 213 6.0 13.0 0.01 0.25 0.25 96 1005.8
20200224140705 51 212 7.0 14.0 0.02 0.25 0.25 96 1006.0
20200224140206 50 202 7.0 22.0 0.02 0.25 0.25 96 1006.1
20200224134706 50 221 7.0 13.0 0.02 0.26 0.25 96 1006.2
20200224134206 50 212 6.0 13.0 0.03 0.26 0.25 96 1006.0
20200224133705 50 211 6.0 14.0 0.03 0.26 0.25 96 1006.0
20200224133207 50 204 7.0 18.0 0.04 0.26 0.25 96 1005.9
20200224131706 50 196 7.0 13.0 0.05 0.25 0.24 96 1006.2
20200224131205 50 207 6.0 13.0 0.06 0.25 0.24 96 1006.3
20200224130705 50 204 6.0 14.0 0.06 0.24 0.24 96 1006.5
20200224130206 50 209 6.0 13.0 0.08 0.24 0.24 96 1006.7
20200224124706 50 214 9.0 15.0 0.09 0.24 0.23 96 1006.9
20200224124206 50 212 8.0 14.0 0.08 0.23 0.22 96 1007.0
20200224123706 50 209 8.0 13.0 0.08 0.23 0.22 95 1007.1
20200224123206 50 207 9.0 15.0 0.07 0.22 0.21 96 1007.1
20200224121706 50 217 6.0 15.0 0.06 0.20 0.20 95 1007.4
20200224121206 50 202 5.0 13.0 0.06 0.19 0.18 95 1007.4
20200224120706 50 220 7.0 13.0 0.05 0.18 0.17 95 1007.4
20200224120206 50 210 6.0 14.0 0.04 0.17 0.16 95 1007.5
20200224114706 50 223 7.0 13.0 0.03 0.15 0.14 95 1007.6
20200224114205 50 195 7.0 15.0 0.03 0.15 0.14 95 1007.8
20200224113706 50 206 8.0 13.0 0.04 0.15 0.14 95 1007.8
20200224113206 50 203 8.0 18.0 0.04 0.15 0.14 95 1007.9
20200224111706 50 201 7.0 13.0 0.03 0.14 0.13 95 1008.0
20200224111206 50 206 7.0 18.0 0.02 0.13 0.13 95 1008.1
20200224110705 50 209 8.0 13.0 0.02 0.13 0.13 95 1008.2
20200224110205 50 208 9.0 14.0 0.02 0.13 0.12 95 1008.2
20200224104705 50 210 7.0 16.0 0.02 0.12 0.11 95 1008.3
20200224104206 50 206 7.0 15.0 0.02 0.12 0.11 95 1008.3
20200224103706 50 209 7.0 16.0 0.01 0.11 0.10 95 1008.4
20200224103205 50 213 7.0 22.0 0.01 0.11 0.10 95 1008.5
20200224101706 50 213 6.0 14.0 0.01 0.11 0.10 95 1008.8
20200224101207 50 214 9.0 13.0 0.01 0.11 0.10 94 1008.9
20200224100706 50 202 7.0 13.0 0.01 0.11 0.10 94 1009.0
20200224100206 51 198 10.0 18.0 0.01 0.11 0.10 94 1009.0
20200224094706 51 211 9.0 15.0 0.00 0.11 0.09 93 1009.0
20200224094205 51 202 11.0 15.0 0.00 0.11 0.09 93 1009.2
20200224093706 51 216 10.0 15.0 0.00 0.11 0.09 92 1009.4
20200224093206 51 199 9.0 14.0 0.00 0.11 0.09 92 1009.2
20200224091706 51 206 10.0 15.0 0.00 0.11 0.09 90 1009.3
20200224091206 51 196 9.0 16.0 0.00 0.11 0.09 90 1009.3
20200224090705 51 205 9.0 15.0 0.00 0.11 0.09 90 1009.2
20200224090206 51 204 7.0 17.0 0.00 0.11 0.09 90 1009.6
20200224084706 51 188 10.0 14.0 0.00 0.11 0.09 90 1009.7
20200224084206 51 208 6.0 18.0 0.00 0.11 0.09 90 1010.2
20200224083706 51 208 9.0 17.0 0.00 0.11 0.09 90 1010.4
20200224083206 51 204 7.0 20.0 0.00 0.11 0.09 91 1010.5
20200224081705 50 189 8.0 17.0 0.00 0.11 0.09 92 1010.5
20200224081206 50 216 9.0 13.0 0.00 0.11 0.09 92 1010.4
20200224080706 50 213 10.0 16.0 0.00 0.11 0.09 92 1010.7
20200224080207 50 218 10.0 21.0 0.00 0.11 0.09 93 1010.6
20200224074706 50 197 9.0 14.0 0.00 0.11 0.09 94 1010.2
20200224074206 49 203 9.0 18.0 0.00 0.11 0.09 94 1010.8
20200224073706 49 209 9.0 13.0 0.00 0.11 0.09 94 1010.7
20200224073206 49 209 10.0 16.0 0.00 0.11 0.09 95 1010.8
20200224071705 49 202 9.0 13.0 0.00 0.11 0.09 96 1010.7
20200224071206 49 201 9.0 15.0 0.00 0.11 0.09 96 1010.9
20200224070706 49 183 6.0 13.0 0.00 0.11 0.09 97 1011.0
20200224070206 49 198 7.0 14.0 0.00 0.11 0.09 97 1011.2
20200224064706 49 196 6.0 9.0 0.00 0.11 0.09 97 1011.8
20200224064206 49 210 6.0 12.0 0.00 0.11 0.09 98 1011.9
20200224063705 49 212 6.0 13.0 0.01 0.11 0.09 98 1012.1
20200224063205 48 216 7.0 13.0 0.01 0.11 0.09 98 1012.3
20200224061706 46 172 8.0 20.0 0.01 0.11 0.09 97 1012.8
20200224061205 46 167 7.0 13.0 0.01 0.11 0.09 97 1012.9
20200224060706 46 173 7.0 10.0 0.01 0.11 0.09 97 1013.2
20200224060205 46 165 6.0 10.0 0.01 0.11 0.09 97 1013.2
20200224054705 45 168 7.0 10.0 0.02 0.11 0.09 97 1013.8
20200224054206 45 163 6.0 10.0 0.02 0.11 0.09 97 1013.9
20200224053705 45 175 5.0 12.0 0.01 0.10 0.09 97 1014.1
20200224053205 45 173 9.0 17.0 0.01 0.10 0.09 97 1014.2
20200224051706 44 165 7.0 13.0 0.02 0.10 0.09 97 1014.5
20200224051206 44 163 8.0 13.0 0.02 0.10 0.09 96 1014.5
20200224050706 44 170 7.0 12.0 0.02 0.10 0.09 96 1014.8
20200224050205 44 173 7.0 16.0 0.02 0.10 0.09 96 1014.9
20200224044706 44 170 9.0 13.0 0.02 0.09 0.08 96 1015.3
20200224044206 44 167 7.0 13.0 0.02 0.09 0.08 96 1015.7
20200224043706 43 163 9.0 14.0 0.02 0.09 0.08 96 1015.8
20200224043205 43 166 9.0 14.0 0.03 0.09 0.08 96 1015.9
20200224041706 43 166 6.0 12.0 0.03 0.09 0.07 96 1016.7
20200224041206 43 166 7.0 13.0 0.03 0.09 0.07 96 1017.1
20200224040706 43 167 6.0 12.0 0.03 0.08 0.06 95 1017.4
20200224040205 43 168 6.0 13.0 0.03 0.08 0.06 95 1017.5
20200224034705 43 178 6.0 13.0 0.03 0.07 0.06 95 1017.7
20200224034206 42 162 6.0 12.0 0.04 0.07 0.06 95 1017.7
20200224033706 42 166 5.0 8.0 0.04 0.07 0.06 94 1017.8
20200224033206 42 164 7.0 13.0 0.04 0.06 0.05 94 1017.9
20200224031706 42 177 4.0 9.0 0.04 0.06 0.04 93 1018.3
20200224031206 42 172 3.0 7.0 0.04 0.06 0.04 93 1018.4
20200224030705 42 163 2.0 7.0 0.03 0.05 0.03 93 1018.7
20200224030206 42 163 4.0 10.0 0.03 0.05 0.03 92 1018.7
20200224024706 43 166 4.0 8.0 0.02 0.04 0.02 91 1019.2
20200224024207 43 154 4.0 9.0 0.02 0.03 0.02 90 1019.4
20200224023706 43 166 4.0 10.0 0.02 0.03 0.02 90 1019.5
20200224023206 43 167 7.0 13.0 0.01 0.02 0.01 89 1019.9
20200224021706 43 153 4.0 9.0 0.00 0.02 0.00 87 1020.2
20200224021206 43 177 5.0 8.0 0.00 0.02 0.00 87 1020.2
20200224020706 43 171 3.0 8.0 0.00 0.02 0.00 87 1020.6
20200224020205 43 169 3.0 7.0 0.00 0.02 0.00 87 1020.9
20200224014706 43 158 2.0 3.0 0.00 0.02 0.00 87 1021.1
20200224014205 43 157 2.0 6.0 0.00 0.02 0.00 87 1021.2
20200224013705 43 155 3.0 5.0 0.00 0.02 0.00 87 1021.2
20200224013206 43 165 1.0 9.0 0.00 0.02 0.00 87 1021.5
20200224011705 44 168 6.0 9.0 0.00 0.02 0.00 87 1021.7
20200224011206 44 171 7.0 10.0 0.00 0.02 0.00 86 1021.9
20200224010706 44 168 7.0 9.0 0.00 0.02 0.00 86 1022.0
20200224010207 44 171 7.0 9.0 0.00 0.02 0.00 86 1022.2
20200224004705 44 166 3.0 6.0 0.00 0.02 0.00 86 1022.5
20200224004205 44 167 5.0 8.0 0.00 0.02 0.00 85 1022.5
20200224003706 44 167 4.0 7.0 0.00 0.02 0.00 85 1022.6
20200224003205 44 170 5.0 8.0 0.00 0.02 0.00 84 1022.8
20200224001706 44 169 3.0 7.0 0.00 0.02 0.00 84 1022.6
20200224001205 44 170 5.0 7.0 0.00 0.02 0.00 84 1022.7
20200224000706 44 166 3.0 7.0 0.00 0.02 0.00 83 1022.8
20200224000205 44 194 1.0 5.0 0.00 0.02 0.00 83 1022.9
20200223234706 44 219 0.0 0.0 0.00 0.02 0.02 83 1023.0
20200223234209 44 219 0.0 0.0 0.00 0.02 0.02 83 1022.9
20200223233706 44 219 0.0 0.0 0.00 0.02 0.02 82 1022.9
20200223233206 44 219 1.0 2.0 0.00 0.02 0.02 81 1022.9
20200223231706 44 219 2.0 3.0 0.00 0.02 0.02 83 1023.3
20200223231206 44 239 1.0 3.0 0.00 0.02 0.02 82 1023.3
20200223230705 43 248 0.0 0.0 0.00 0.02 0.02 83 1023.3
20200223230206 44 275 0.0 0.0 0.00 0.02 0.02 83 1023.3
20200223224705 44 294 0.0 0.0 0.00 0.02 0.02 82 1023.6
20200223224206 44 294 0.0 0.0 0.00 0.02 0.02 82 1023.6
20200223223706 44 294 0.0 0.0 0.00 0.02 0.02 82 1023.5
20200223223206 44 294 0.0 0.0 0.00 0.02 0.02 82 1023.5
20200223221706 44 294 0.0 0.0 0.00 0.02 0.02 81 1023.6
20200223221205 44 294 0.0 1.0 0.00 0.02 0.02 81 1023.7
20200223220705 44 294 1.0 1.0 0.00 0.02 0.02 81 1023.7
20200223220205 44 294 0.0 1.0 0.00 0.02 0.02 81 1023.6
20200223214706 44 294 0.0 0.0 0.00 0.02 0.02 80 1023.7
20200223214205 44 294 0.0 0.0 0.00 0.02 0.02 80 1023.7
20200223213705 44 294 0.0 0.0 0.00 0.02 0.02 80 1023.6
20200223213205 44 294 0.0 0.0 0.00 0.02 0.02 80 1023.6
20200223211705 45 294 0.0 0.0 0.00 0.02 0.02 79 1024.0
20200223211205 45 294 0.0 0.0 0.00 0.02 0.02 79 1023.9
20200223210710 45 294 0.0 0.0 0.00 0.02 0.02 79 1023.9
20200223210206 45 294 0.0 0.0 0.00 0.02 0.02 78 1023.8
20200223204705 45 294 0.0 0.0 0.00 0.02 0.02 78 1023.7
20200223204205 45 294 0.0 0.0 0.00 0.02 0.02 78 1023.6
20200223203705 45 294 0.0 0.0 0.00 0.02 0.02 77 1023.6
20200223203206 45 294 0.0 0.0 0.00 0.02 0.02 76 1023.7
20200223201705 46 294 0.0 0.0 0.00 0.02 0.02 75 1023.8
20200223201206 46 294 0.0 0.0 0.00 0.02 0.02 74 1023.9
20200223200706 46 294 0.0 1.0 0.00 0.02 0.02 73 1023.7
20200223200206 46 294 0.0 2.0 0.00 0.02 0.02 72 1023.8
20200223194705 46 294 0.0 0.0 0.00 0.02 0.02 72 1023.8
20200223194205 46 294 0.0 1.0 0.00 0.02 0.02 71 1023.7
20200223193706 46 294 1.0 2.0 0.00 0.02 0.02 72 1023.7
20200223193207 46 294 1.0 3.0 0.00 0.02 0.02 71 1023.5
20200223191706 47 279 1.0 2.0 0.00 0.02 0.02 71 1023.3
20200223191205 47 279 1.0 2.0 0.00 0.02 0.02 70 1023.2
20200223190705 47 310 3.0 6.0 0.00 0.02 0.02 70 1023.1
20200223190206 47 298 3.0 7.0 0.00 0.02 0.02 70 1023.1